Wickliffe, OH (44092)

7:00 AM EST on February 09, 2016 (GMT -0500)
lake erie | | Change Station
CLOSE
Current Station
Personal Weather Station
Location: Eastlake, OH
Elevation: 646 ft
Nearby Weather Stations
Active Advisory: Lake Effect Snow Watch

Elev 646 ft 41.63 °N, 81.45 °W | Updated 14 seconds ago

Overcast
Overcast
33.1 °F
Feels Like 28 °F
N
5.6
Wind Variable Wind from West
Gusts 7.4 mph

Today
High -- | Low -- °F
--% Chance of Precip.
Yesterday
High -- | Low -- °F
Precip. -- in
Pressure 29.56 in
Visibility 10.0 miles
Clouds Mostly Cloudy 1000 ft
Overcast 2000 ft
Windchill 28 °F
Dew Point 27 °F
Humidity 77%
Rainfall 0.04 in
Snow Depth Not available.
7:29 AM 5:51 PM
New Moon, 1% visible
METAR KCGF 091145Z 26008KT 10SM BKN010 OVC020 01/00 A2956
Pressure 29.56 in
Visibility 10.0 miles
Clouds Mostly Cloudy 1000 ft
Overcast 2000 ft
Windchill 28 °F
Dew Point 27 °F
Humidity 77%
Rainfall 0.04 in
Snow Depth Not available.
7:29 AM 5:51 PM
New Moon, 1% visible
METAR KCGF 091145Z 26008KT 10SM BKN010 OVC020 01/00 A2956

10-Day Weather Forecast

Almanac

Astronomy

Feb. 09, 2016 Rise Set
Actual Time
Civil Twilight
Nautical Twilight
Astronomical Twilight
Moon
Length of Visible Light
Length of Day
Tomorrow will be .
, % of the Moon is Illuminated

Today's Extremes

State Highs State Lows

Community

WunderPhotos

Upload Photos

1,891,565 photos uploaded!

WunderBlog® & News

Nearby

Air Quality

  Air Quality AQ Index Pollutant
Not available.

Snow Depth

Station Depth Elevation

Earthquake Activity

City Distance Mag. Time & Date
Minimum magnitude displayed is 2.5.

Coastal Water Temperatures

Place Temperature

Stations

Nearby Weather Stations

Station Location Temp. Windchill Dew Point Humidity Wind Precip. Elev Updated Type
                   

Watches & Warnings

Lake Effect Snow Watch
Issued: 3:46 AM EST Feb. 9, 2016 – National Weather Service

... Lake effect snow watch in effect from late tonight through
Thursday afternoon...

The National Weather Service in Cleveland has issued a lake
effect snow watch... which is in effect from late tonight through
Thursday afternoon for the snowbelt of extreme northeast Ohio and
northwest Pennsylvania.

* Accumulations... snow accumulations of 6 to 14 inches are
possible. The highest amounts will probably occur across inland
Erie County Pennsylvania.

* Timing... snow late tonight and Wednesday will transition to
lake effect snow showers and squalls by Wednesday night and
continue into Thursday.

* Impacts... snow covered roads and reduced visibility during
heavier snow showers and squalls.

* Winds... west generally 10 to 20 mph. Gusts of 25 to 30 mph are
possible along the Lake Erie Lakeshore.

* Temperatures... in the 20s on Wednesday dropping to near 10 by
Thursday morning.

Precautionary/preparedness actions...

A lake effect snow watch means that significant winter weather is
possible in localized areas within the next 36 hours. Stay tuned
to NOAA Weather Radio for further details or updates.